sensor_id;sensor_type;location;lat;lon;timestamp;temperature;humidity
71047;SHT31;58703;48.978;8.982;2023-11-19T00:00:34;6.87;99.99
71047;SHT31;58703;48.978;8.982;2023-11-19T00:03:01;6.97;99.99
71047;SHT31;58703;48.978;8.982;2023-11-19T00:05:27;7.04;99.99
71047;SHT31;58703;48.978;8.982;2023-11-19T00:07:55;7.07;99.99
71047;SHT31;58703;48.978;8.982;2023-11-19T00:10:22;7.07;99.99
71047;SHT31;58703;48.978;8.982;2023-11-19T00:12:48;7.06;99.99
71047;SHT31;58703;48.978;8.982;2023-11-19T00:15:15;7.04;99.99
71047;SHT31;58703;48.978;8.982;2023-11-19T00:17:42;7.13;99.99
71047;SHT31;58703;48.978;8.982;2023-11-19T00:20:19;7.10;99.99
71047;SHT31;58703;48.978;8.982;2023-11-19T00:22:45;7.10;99.99
71047;SHT31;58703;48.978;8.982;2023-11-19T00:25:14;7.07;99.99
71047;SHT31;58703;48.978;8.982;2023-11-19T00:27:39;7.18;99.99
71047;SHT31;58703;48.978;8.982;2023-11-19T00:30:05;7.24;99.99
71047;SHT31;58703;48.978;8.982;2023-11-19T00:32:32;7.32;99.99
71047;SHT31;58703;48.978;8.982;2023-11-19T00:34:58;7.40;99.99
71047;SHT31;58703;48.978;8.982;2023-11-19T00:37:23;7.20;99.99
71047;SHT31;58703;48.978;8.982;2023-11-19T00:39:49;7.14;99.99
71047;SHT31;58703;48.978;8.982;2023-11-19T00:42:14;7.28;99.99
71047;SHT31;58703;48.978;8.982;2023-11-19T00:44:40;7.26;99.99
71047;SHT31;58703;48.978;8.982;2023-11-19T00:47:06;7.32;99.99
71047;SHT31;58703;48.978;8.982;2023-11-19T00:49:32;7.37;99.99
71047;SHT31;58703;48.978;8.982;2023-11-19T00:52:00;7.30;99.99
71047;SHT31;58703;48.978;8.982;2023-11-19T00:54:27;7.27;99.99
71047;SHT31;58703;48.978;8.982;2023-11-19T00:56:53;7.18;99.99
71047;SHT31;58703;48.978;8.982;2023-11-19T00:59:19;7.14;99.99
71047;SHT31;58703;48.978;8.982;2023-11-19T01:01:44;7.10;99.99
71047;SHT31;58703;48.978;8.982;2023-11-19T01:04:10;7.10;99.99
71047;SHT31;58703;48.978;8.982;2023-11-19T01:06:36;7.13;99.99
71047;SHT31;58703;48.978;8.982;2023-11-19T01:09:01;7.31;99.99
71047;SHT31;58703;48.978;8.982;2023-11-19T01:11:27;7.35;99.99
71047;SHT31;58703;48.978;8.982;2023-11-19T01:13:53;7.35;99.99
71047;SHT31;58703;48.978;8.982;2023-11-19T01:16:19;7.41;99.99
71047;SHT31;58703;48.978;8.982;2023-11-19T01:18:48;7.35;99.99
71047;SHT31;58703;48.978;8.982;2023-11-19T01:21:14;7.44;99.99
71047;SHT31;58703;48.978;8.982;2023-11-19T01:23:40;7.50;99.99
71047;SHT31;58703;48.978;8.982;2023-11-19T01:26:09;7.46;99.99
71047;SHT31;58703;48.978;8.982;2023-11-19T01:28:39;7.31;99.99
71047;SHT31;58703;48.978;8.982;2023-11-19T01:31:12;7.27;99.99
71047;SHT31;58703;48.978;8.982;2023-11-19T01:33:38;7.21;99.99
71047;SHT31;58703;48.978;8.982;2023-11-19T01:36:04;7.30;99.99
71047;SHT31;58703;48.978;8.982;2023-11-19T01:38:30;7.32;99.99
71047;SHT31;58703;48.978;8.982;2023-11-19T01:40:57;7.41;99.99
71047;SHT31;58703;48.978;8.982;2023-11-19T01:43:34;7.51;99.99
71047;SHT31;58703;48.978;8.982;2023-11-19T01:46:00;7.43;99.99
71047;SHT31;58703;48.978;8.982;2023-11-19T01:48:26;7.35;99.99
71047;SHT31;58703;48.978;8.982;2023-11-19T01:50:53;7.27;99.99
71047;SHT31;58703;48.978;8.982;2023-11-19T01:53:19;7.38;99.99
71047;SHT31;58703;48.978;8.982;2023-11-19T01:55:48;7.46;99.99
71047;SHT31;58703;48.978;8.982;2023-11-19T01:58:14;7.43;99.99
71047;SHT31;58703;48.978;8.982;2023-11-19T02:00:40;7.30;99.99
71047;SHT31;58703;48.978;8.982;2023-11-19T02:03:07;7.41;99.99
71047;SHT31;58703;48.978;8.982;2023-11-19T02:05:34;7.44;99.99
71047;SHT31;58703;48.978;8.982;2023-11-19T02:08:01;7.44;99.99
71047;SHT31;58703;48.978;8.982;2023-11-19T02:10:27;7.44;99.99
71047;SHT31;58703;48.978;8.982;2023-11-19T02:12:52;7.48;99.99
71047;SHT31;58703;48.978;8.982;2023-11-19T02:15:18;7.44;99.99
71047;SHT31;58703;48.978;8.982;2023-11-19T02:17:50;7.54;99.99
71047;SHT31;58703;48.978;8.982;2023-11-19T02:20:16;7.65;99.99
71047;SHT31;58703;48.978;8.982;2023-11-19T02:22:42;7.57;99.99
71047;SHT31;58703;48.978;8.982;2023-11-19T02:25:19;7.54;99.99
71047;SHT31;58703;48.978;8.982;2023-11-19T02:27:59;7.51;99.99
71047;SHT31;58703;48.978;8.982;2023-11-19T02:30:25;7.71;99.99
71047;SHT31;58703;48.978;8.982;2023-11-19T02:32:55;7.65;99.99
71047;SHT31;58703;48.978;8.982;2023-11-19T02:35:23;7.67;99.99
71047;SHT31;58703;48.978;8.982;2023-11-19T02:37:49;7.64;99.99
71047;SHT31;58703;48.978;8.982;2023-11-19T02:40:14;7.52;99.99
71047;SHT31;58703;48.978;8.982;2023-11-19T02:42:40;7.48;99.99
71047;SHT31;58703;48.978;8.982;2023-11-19T02:45:07;7.48;99.99
71047;SHT31;58703;48.978;8.982;2023-11-19T02:47:33;7.47;99.99
71047;SHT31;58703;48.978;8.982;2023-11-19T02:49:59;7.40;99.99
71047;SHT31;58703;48.978;8.982;2023-11-19T02:52:25;7.40;99.99
71047;SHT31;58703;48.978;8.982;2023-11-19T02:54:51;7.40;99.99
71047;SHT31;58703;48.978;8.982;2023-11-19T02:57:17;7.46;99.99
71047;SHT31;58703;48.978;8.982;2023-11-19T02:59:44;7.58;99.99
71047;SHT31;58703;48.978;8.982;2023-11-19T03:02:10;7.52;99.99
71047;SHT31;58703;48.978;8.982;2023-11-19T03:04:39;7.44;99.99
71047;SHT31;58703;48.978;8.982;2023-11-19T03:07:06;7.50;99.99
71047;SHT31;58703;48.978;8.982;2023-11-19T03:09:33;7.61;99.99
71047;SHT31;58703;48.978;8.982;2023-11-19T03:12:00;7.64;99.99
71047;SHT31;58703;48.978;8.982;2023-11-19T03:14:25;7.57;99.99
71047;SHT31;58703;48.978;8.982;2023-11-19T03:16:51;7.58;99.99
71047;SHT31;58703;48.978;8.982;2023-11-19T03:19:17;7.54;99.99
71047;SHT31;58703;48.978;8.982;2023-11-19T03:21:43;7.54;99.99
71047;SHT31;58703;48.978;8.982;2023-11-19T03:24:12;7.58;99.99
71047;SHT31;58703;48.978;8.982;2023-11-19T03:26:38;7.51;99.99
71047;SHT31;58703;48.978;8.982;2023-11-19T03:29:03;7.52;99.99
71047;SHT31;58703;48.978;8.982;2023-11-19T03:31:29;7.50;99.99
71047;SHT31;58703;48.978;8.982;2023-11-19T03:33:54;7.48;99.99
71047;SHT31;58703;48.978;8.982;2023-11-19T03:36:20;7.54;99.99
71047;SHT31;58703;48.978;8.982;2023-11-19T03:38:45;7.57;99.99
71047;SHT31;58703;48.978;8.982;2023-11-19T03:41:12;7.55;99.99
71047;SHT31;58703;48.978;8.982;2023-11-19T03:43:39;7.64;99.99
71047;SHT31;58703;48.978;8.982;2023-11-19T03:46:18;7.75;99.99
71047;SHT31;58703;48.978;8.982;2023-11-19T03:48:44;7.75;99.99
71047;SHT31;58703;48.978;8.982;2023-11-19T03:51:09;7.88;99.99
71047;SHT31;58703;48.978;8.982;2023-11-19T03:53:35;7.79;99.99
71047;SHT31;58703;48.978;8.982;2023-11-19T03:56:01;7.85;99.99
71047;SHT31;58703;48.978;8.982;2023-11-19T03:58:26;7.86;99.99
71047;SHT31;58703;48.978;8.982;2023-11-19T04:00:52;7.99;99.99
71047;SHT31;58703;48.978;8.982;2023-11-19T04:03:17;7.93;99.99
71047;SHT31;58703;48.978;8.982;2023-11-19T04:05:45;7.83;99.99
71047;SHT31;58703;48.978;8.982;2023-11-19T04:08:10;7.86;99.99
71047;SHT31;58703;48.978;8.982;2023-11-19T04:10:36;7.85;99.99
71047;SHT31;58703;48.978;8.982;2023-11-19T04:13:01;7.98;99.99
71047;SHT31;58703;48.978;8.982;2023-11-19T04:15:27;7.86;99.99
71047;SHT31;58703;48.978;8.982;2023-11-19T04:17:52;7.93;99.99
71047;SHT31;58703;48.978;8.982;2023-11-19T04:20:18;7.95;99.99
71047;SHT31;58703;48.978;8.982;2023-11-19T04:22:43;7.89;99.99
71047;SHT31;58703;48.978;8.982;2023-11-19T04:25:09;7.82;99.99
71047;SHT31;58703;48.978;8.982;2023-11-19T04:27:34;7.82;99.99
71047;SHT31;58703;48.978;8.982;2023-11-19T04:30:00;7.88;99.99
71047;SHT31;58703;48.978;8.982;2023-11-19T04:32:27;7.83;99.99
71047;SHT31;58703;48.978;8.982;2023-11-19T04:34:52;8.02;99.99
71047;SHT31;58703;48.978;8.982;2023-11-19T04:37:18;8.64;99.99
71047;SHT31;58703;48.978;8.982;2023-11-19T04:39:44;9.04;99.99
71047;SHT31;58703;48.978;8.982;2023-11-19T04:42:11;9.50;99.99
71047;SHT31;58703;48.978;8.982;2023-11-19T04:44:37;10.25;99.99
71047;SHT31;58703;48.978;8.982;2023-11-19T04:47:03;10.52;99.99
71047;SHT31;58703;48.978;8.982;2023-11-19T04:49:29;10.44;99.99
71047;SHT31;58703;48.978;8.982;2023-11-19T04:51:55;10.52;99.99
71047;SHT31;58703;48.978;8.982;2023-11-19T04:54:21;11.16;99.99
71047;SHT31;58703;48.978;8.982;2023-11-19T04:56:46;11.19;99.99
71047;SHT31;58703;48.978;8.982;2023-11-19T04:59:12;11.42;99.99
71047;SHT31;58703;48.978;8.982;2023-11-19T05:01:38;11.49;99.99
71047;SHT31;58703;48.978;8.982;2023-11-19T05:04:04;11.63;99.99
71047;SHT31;58703;48.978;8.982;2023-11-19T05:06:30;11.83;99.99
71047;SHT31;58703;48.978;8.982;2023-11-19T05:08:56;11.77;99.99
71047;SHT31;58703;48.978;8.982;2023-11-19T05:11:22;11.71;99.99
71047;SHT31;58703;48.978;8.982;2023-11-19T05:13:49;11.70;99.99
71047;SHT31;58703;48.978;8.982;2023-11-19T05:16:15;11.77;99.99
71047;SHT31;58703;48.978;8.982;2023-11-19T05:18:41;11.73;99.99
71047;SHT31;58703;48.978;8.982;2023-11-19T05:21:07;11.99;99.99
71047;SHT31;58703;48.978;8.982;2023-11-19T05:23:33;11.90;99.99
71047;SHT31;58703;48.978;8.982;2023-11-19T05:26:02;12.04;99.99
71047;SHT31;58703;48.978;8.982;2023-11-19T05:28:27;12.08;99.99
71047;SHT31;58703;48.978;8.982;2023-11-19T05:30:53;12.15;99.62
71047;SHT31;58703;48.978;8.982;2023-11-19T05:33:18;12.04;99.99
71047;SHT31;58703;48.978;8.982;2023-11-19T05:35:44;12.07;99.99
71047;SHT31;58703;48.978;8.982;2023-11-19T05:38:09;12.08;99.99
71047;SHT31;58703;48.978;8.982;2023-11-19T05:40:35;12.15;99.74
71047;SHT31;58703;48.978;8.982;2023-11-19T05:43:01;12.20;99.46
71047;SHT31;58703;48.978;8.982;2023-11-19T05:45:26;12.20;99.49
71047;SHT31;58703;48.978;8.982;2023-11-19T05:47:52;12.25;99.18
71047;SHT31;58703;48.978;8.982;2023-11-19T05:50:18;12.21;99.36
71047;SHT31;58703;48.978;8.982;2023-11-19T05:52:44;12.14;99.76
71047;SHT31;58703;48.978;8.982;2023-11-19T05:55:09;12.04;99.99
71047;SHT31;58703;48.978;8.982;2023-11-19T05:57:39;12.14;99.80
71047;SHT31;58703;48.978;8.982;2023-11-19T06:00:08;12.13;99.69
71047;SHT31;58703;48.978;8.982;2023-11-19T06:02:35;12.17;99.59
71047;SHT31;58703;48.978;8.982;2023-11-19T06:05:03;12.08;99.76
71047;SHT31;58703;48.978;8.982;2023-11-19T06:07:31;12.07;99.96
71047;SHT31;58703;48.978;8.982;2023-11-19T06:09:56;12.02;99.99
71047;SHT31;58703;48.978;8.982;2023-11-19T06:12:22;12.25;98.70
71047;SHT31;58703;48.978;8.982;2023-11-19T06:14:48;12.31;98.62
71047;SHT31;58703;48.978;8.982;2023-11-19T06:17:13;12.18;98.96
71047;SHT31;58703;48.978;8.982;2023-11-19T06:19:39;12.28;98.51
71047;SHT31;58703;48.978;8.982;2023-11-19T06:22:04;12.25;98.57
71047;SHT31;58703;48.978;8.982;2023-11-19T06:24:30;12.31;98.40
71047;SHT31;58703;48.978;8.982;2023-11-19T06:26:55;12.53;97.33
71047;SHT31;58703;48.978;8.982;2023-11-19T06:29:21;12.49;97.73
71047;SHT31;58703;48.978;8.982;2023-11-19T06:31:47;12.52;97.54
71047;SHT31;58703;48.978;8.982;2023-11-19T06:34:15;12.50;97.65
71047;SHT31;58703;48.978;8.982;2023-11-19T06:36:41;12.44;97.92
71047;SHT31;58703;48.978;8.982;2023-11-19T06:39:10;12.50;97.81
71047;SHT31;58703;48.978;8.982;2023-11-19T06:41:44;12.44;97.94
71047;SHT31;58703;48.978;8.982;2023-11-19T06:44:10;12.38;98.52
71047;SHT31;58703;48.978;8.982;2023-11-19T06:46:35;12.41;97.88
71047;SHT31;58703;48.978;8.982;2023-11-19T06:49:01;12.41;97.91
71047;SHT31;58703;48.978;8.982;2023-11-19T06:51:26;12.39;97.94
71047;SHT31;58703;48.978;8.982;2023-11-19T06:53:52;12.46;97.64
71047;SHT31;58703;48.978;8.982;2023-11-19T06:56:19;12.38;98.00
71047;SHT31;58703;48.978;8.982;2023-11-19T06:58:45;12.39;97.80
71047;SHT31;58703;48.978;8.982;2023-11-19T07:01:11;12.26;98.51
71047;SHT31;58703;48.978;8.982;2023-11-19T07:03:36;12.35;98.29
71047;SHT31;58703;48.978;8.982;2023-11-19T07:06:02;12.34;98.22
71047;SHT31;58703;48.978;8.982;2023-11-19T07:08:29;12.20;98.66
71047;SHT31;58703;48.978;8.982;2023-11-19T07:10:54;12.10;99.13
71047;SHT31;58703;48.978;8.982;2023-11-19T07:13:20;12.14;99.25
71047;SHT31;58703;48.978;8.982;2023-11-19T07:15:46;12.49;97.66
71047;SHT31;58703;48.978;8.982;2023-11-19T07:18:11;12.53;97.45
71047;SHT31;58703;48.978;8.982;2023-11-19T07:20:37;12.50;97.65
71047;SHT31;58703;48.978;8.982;2023-11-19T07:23:03;12.42;97.74
71047;SHT31;58703;48.978;8.982;2023-11-19T07:25:29;12.56;97.27
71047;SHT31;58703;48.978;8.982;2023-11-19T07:27:55;12.56;97.26
71047;SHT31;58703;48.978;8.982;2023-11-19T07:30:22;12.62;96.82
71047;SHT31;58703;48.978;8.982;2023-11-19T07:32:48;13.07;94.53
71047;SHT31;58703;48.978;8.982;2023-11-19T07:35:14;13.03;94.78
71047;SHT31;58703;48.978;8.982;2023-11-19T07:37:42;13.19;93.83
71047;SHT31;58703;48.978;8.982;2023-11-19T07:40:08;13.04;95.01
71047;SHT31;58703;48.978;8.982;2023-11-19T07:42:34;12.90;95.88
71047;SHT31;58703;48.978;8.982;2023-11-19T07:44:59;12.75;96.98
71047;SHT31;58703;48.978;8.982;2023-11-19T07:47:25;12.58;97.39
71047;SHT31;58703;48.978;8.982;2023-11-19T07:49:51;12.41;98.47
71047;SHT31;58703;48.978;8.982;2023-11-19T07:52:16;12.34;98.72
71047;SHT31;58703;48.978;8.982;2023-11-19T07:54:42;12.39;98.24
71047;SHT31;58703;48.978;8.982;2023-11-19T07:57:08;12.39;98.51
71047;SHT31;58703;48.978;8.982;2023-11-19T07:59:34;12.65;96.80
71047;SHT31;58703;48.978;8.982;2023-11-19T08:01:59;12.53;97.79
71047;SHT31;58703;48.978;8.982;2023-11-19T08:04:25;12.46;98.07
71047;SHT31;58703;48.978;8.982;2023-11-19T08:06:51;12.45;97.99
71047;SHT31;58703;48.978;8.982;2023-11-19T08:09:17;12.69;97.09
71047;SHT31;58703;48.978;8.982;2023-11-19T08:11:42;12.90;96.08
71047;SHT31;58703;48.978;8.982;2023-11-19T08:14:08;13.02;95.55
71047;SHT31;58703;48.978;8.982;2023-11-19T08:16:34;13.09;95.89
71047;SHT31;58703;48.978;8.982;2023-11-19T08:19:00;13.27;95.39
71047;SHT31;58703;48.978;8.982;2023-11-19T08:21:26;13.58;93.04
71047;SHT31;58703;48.978;8.982;2023-11-19T08:23:52;13.67;92.51
71047;SHT31;58703;48.978;8.982;2023-11-19T08:26:18;13.62;93.05
71047;SHT31;58703;48.978;8.982;2023-11-19T08:28:44;13.72;92.15
71047;SHT31;58703;48.978;8.982;2023-11-19T08:31:09;13.46;93.96
71047;SHT31;58703;48.978;8.982;2023-11-19T08:33:35;13.24;95.07
71047;SHT31;58703;48.978;8.982;2023-11-19T08:36:01;13.10;96.06
71047;SHT31;58703;48.978;8.982;2023-11-19T08:38:27;13.10;96.32
71047;SHT31;58703;48.978;8.982;2023-11-19T08:40:52;13.06;96.56
71047;SHT31;58703;48.978;8.982;2023-11-19T08:43:18;12.99;97.53
71047;SHT31;58703;48.978;8.982;2023-11-19T08:45:44;12.96;97.55
71047;SHT31;58703;48.978;8.982;2023-11-19T08:48:10;13.19;95.73
71047;SHT31;58703;48.978;8.982;2023-11-19T08:50:35;13.47;95.61
71047;SHT31;58703;48.978;8.982;2023-11-19T08:53:01;13.62;94.50
71047;SHT31;58703;48.978;8.982;2023-11-19T08:55:26;13.79;93.65
71047;SHT31;58703;48.978;8.982;2023-11-19T08:57:52;13.78;94.05
71047;SHT31;58703;48.978;8.982;2023-11-19T09:00:18;13.97;94.34
71047;SHT31;58703;48.978;8.982;2023-11-19T09:02:44;14.16;91.68
71047;SHT31;58703;48.978;8.982;2023-11-19T09:05:09;14.25;91.90
71047;SHT31;58703;48.978;8.982;2023-11-19T09:07:36;14.34;91.77
71047;SHT31;58703;48.978;8.982;2023-11-19T09:10:03;14.22;90.98
71047;SHT31;58703;48.978;8.982;2023-11-19T09:12:30;14.22;91.48
71047;SHT31;58703;48.978;8.982;2023-11-19T09:14:56;14.46;89.53
71047;SHT31;58703;48.978;8.982;2023-11-19T09:17:22;14.42;90.28
71047;SHT31;58703;48.978;8.982;2023-11-19T09:19:47;14.30;90.31
71047;SHT31;58703;48.978;8.982;2023-11-19T09:22:13;14.32;88.93
71047;SHT31;58703;48.978;8.982;2023-11-19T09:24:39;14.19;89.57
71047;SHT31;58703;48.978;8.982;2023-11-19T09:27:05;13.78;92.00
71047;SHT31;58703;48.978;8.982;2023-11-19T09:29:31;13.26;95.53
71047;SHT31;58703;48.978;8.982;2023-11-19T09:31:57;13.19;96.26
71047;SHT31;58703;48.978;8.982;2023-11-19T09:34:23;13.16;97.00
71047;SHT31;58703;48.978;8.982;2023-11-19T09:36:49;13.33;96.53
71047;SHT31;58703;48.978;8.982;2023-11-19T09:39:14;13.44;96.88
71047;SHT31;58703;48.978;8.982;2023-11-19T09:41:40;13.64;96.87
71047;SHT31;58703;48.978;8.982;2023-11-19T09:44:08;13.79;96.82
71047;SHT31;58703;48.978;8.982;2023-11-19T09:46:34;13.92;94.94
71047;SHT31;58703;48.978;8.982;2023-11-19T09:49:01;14.02;94.61
71047;SHT31;58703;48.978;8.982;2023-11-19T09:51:28;14.30;94.20
71047;SHT31;58703;48.978;8.982;2023-11-19T09:53:53;14.37;93.72
71047;SHT31;58703;48.978;8.982;2023-11-19T09:56:19;14.56;92.39
71047;SHT31;58703;48.978;8.982;2023-11-19T09:58:45;14.52;90.37
71047;SHT31;58703;48.978;8.982;2023-11-19T10:01:14;14.72;90.09
71047;SHT31;58703;48.978;8.982;2023-11-19T10:03:40;14.87;88.56
71047;SHT31;58703;48.978;8.982;2023-11-19T10:06:07;14.94;88.72
71047;SHT31;58703;48.978;8.982;2023-11-19T10:08:33;14.95;87.76
71047;SHT31;58703;48.978;8.982;2023-11-19T10:10:59;15.27;88.21
71047;SHT31;58703;48.978;8.982;2023-11-19T10:13:28;15.25;87.32
71047;SHT31;58703;48.978;8.982;2023-11-19T10:15:55;15.24;86.27
71047;SHT31;58703;48.978;8.982;2023-11-19T10:18:26;15.15;86.16
71047;SHT31;58703;48.978;8.982;2023-11-19T10:20:52;15.18;86.53
71047;SHT31;58703;48.978;8.982;2023-11-19T10:23:18;15.25;85.33
71047;SHT31;58703;48.978;8.982;2023-11-19T10:25:45;15.21;85.40
71047;SHT31;58703;48.978;8.982;2023-11-19T10:28:10;15.28;83.78
71047;SHT31;58703;48.978;8.982;2023-11-19T10:30:36;15.20;84.02
71047;SHT31;58703;48.978;8.982;2023-11-19T10:35:51;15.21;84.44
71047;SHT31;58703;48.978;8.982;2023-11-19T10:38:22;15.27;83.40
71047;SHT31;58703;48.978;8.982;2023-11-19T10:40:48;15.38;83.99
71047;SHT31;58703;48.978;8.982;2023-11-19T10:43:15;15.45;83.90
71047;SHT31;58703;48.978;8.982;2023-11-19T10:45:41;15.56;83.94
71047;SHT31;58703;48.978;8.982;2023-11-19T10:48:07;15.65;83.00
71047;SHT31;58703;48.978;8.982;2023-11-19T10:52:59;15.85;81.34
71047;SHT31;58703;48.978;8.982;2023-11-19T10:55:32;15.78;80.27
71047;SHT31;58703;48.978;8.982;2023-11-19T10:58:05;15.88;81.51
71047;SHT31;58703;48.978;8.982;2023-11-19T11:00:38;16.20;81.40
71047;SHT31;58703;48.978;8.982;2023-11-19T11:03:20;16.13;81.19
71047;SHT31;58703;48.978;8.982;2023-11-19T11:05:49;15.73;82.34
71047;SHT31;58703;48.978;8.982;2023-11-19T11:08:15;15.69;81.94
71047;SHT31;58703;48.978;8.982;2023-11-19T11:10:55;15.78;81.88
71047;SHT31;58703;48.978;8.982;2023-11-19T11:13:24;15.89;81.10
71047;SHT31;58703;48.978;8.982;2023-11-19T11:15:51;15.93;80.80
71047;SHT31;58703;48.978;8.982;2023-11-19T11:18:17;15.65;81.01
71047;SHT31;58703;48.978;8.982;2023-11-19T11:20:46;15.59;80.81
71047;SHT31;58703;48.978;8.982;2023-11-19T11:31:21;15.42;81.65
71047;SHT31;58703;48.978;8.982;2023-11-19T11:36:37;15.63;82.18
71047;SHT31;58703;48.978;8.982;2023-11-19T11:39:09;15.63;82.73
71047;SHT31;58703;48.978;8.982;2023-11-19T11:41:35;15.69;81.74
71047;SHT31;58703;48.978;8.982;2023-11-19T11:44:01;15.89;82.04
71047;SHT31;58703;48.978;8.982;2023-11-19T11:49:07;15.65;81.41
71047;SHT31;58703;48.978;8.982;2023-11-19T11:54:36;15.58;81.22
71047;SHT31;58703;48.978;8.982;2023-11-19T11:57:12;15.49;79.81
71047;SHT31;58703;48.978;8.982;2023-11-19T12:02:12;15.39;80.45
71047;SHT31;58703;48.978;8.982;2023-11-19T12:04:39;15.42;81.16
71047;SHT31;58703;48.978;8.982;2023-11-19T12:09:32;15.65;81.65
71047;SHT31;58703;48.978;8.982;2023-11-19T12:12:27;15.83;80.57
71047;SHT31;58703;48.978;8.982;2023-11-19T12:15:02;15.70;80.83
71047;SHT31;58703;48.978;8.982;2023-11-19T12:20:03;16.00;79.63
71047;SHT31;58703;48.978;8.982;2023-11-19T12:22:30;15.82;78.21
71047;SHT31;58703;48.978;8.982;2023-11-19T12:24:56;16.00;77.93
71047;SHT31;58703;48.978;8.982;2023-11-19T12:27:22;15.83;77.54
71047;SHT31;58703;48.978;8.982;2023-11-19T12:29:50;15.92;76.37
71047;SHT31;58703;48.978;8.982;2023-11-19T12:32:16;15.97;75.92
71047;SHT31;58703;48.978;8.982;2023-11-19T12:34:42;16.09;75.54
71047;SHT31;58703;48.978;8.982;2023-11-19T12:37:07;16.03;75.99
71047;SHT31;58703;48.978;8.982;2023-11-19T12:39:35;15.85;75.93
71047;SHT31;58703;48.978;8.982;2023-11-19T12:42:01;15.90;76.33
71047;SHT31;58703;48.978;8.982;2023-11-19T12:44:27;16.24;76.46
71047;SHT31;58703;48.978;8.982;2023-11-19T12:49:29;16.03;76.63
71047;SHT31;58703;48.978;8.982;2023-11-19T12:51:55;16.03;77.28
71047;SHT31;58703;48.978;8.982;2023-11-19T12:54:37;15.88;76.97
71047;SHT31;58703;48.978;8.982;2023-11-19T12:57:04;15.72;76.74
71047;SHT31;58703;48.978;8.982;2023-11-19T12:59:33;15.93;78.05
71047;SHT31;58703;48.978;8.982;2023-11-19T13:01:59;16.17;77.33
71047;SHT31;58703;48.978;8.982;2023-11-19T13:04:29;16.29;75.87
71047;SHT31;58703;48.978;8.982;2023-11-19T13:06:58;16.16;76.05
71047;SHT31;58703;48.978;8.982;2023-11-19T13:09:30;16.05;75.16
71047;SHT31;58703;48.978;8.982;2023-11-19T13:11:59;16.19;75.10
71047;SHT31;58703;48.978;8.982;2023-11-19T13:14:37;16.09;74.75
71047;SHT31;58703;48.978;8.982;2023-11-19T13:17:03;16.12;74.25
71047;SHT31;58703;48.978;8.982;2023-11-19T13:19:31;16.05;74.70
71047;SHT31;58703;48.978;8.982;2023-11-19T13:21:56;15.92;73.60
71047;SHT31;58703;48.978;8.982;2023-11-19T13:24:22;16.10;73.52
71047;SHT31;58703;48.978;8.982;2023-11-19T13:26:49;15.99;73.41
71047;SHT31;58703;48.978;8.982;2023-11-19T13:29:15;16.14;73.63
71047;SHT31;58703;48.978;8.982;2023-11-19T13:31:40;16.19;73.05
71047;SHT31;58703;48.978;8.982;2023-11-19T13:34:06;15.97;73.77
71047;SHT31;58703;48.978;8.982;2023-11-19T13:36:32;16.13;73.28
71047;SHT31;58703;48.978;8.982;2023-11-19T13:38:58;15.97;73.01
71047;SHT31;58703;48.978;8.982;2023-11-19T13:41:25;16.10;72.52
71047;SHT31;58703;48.978;8.982;2023-11-19T13:43:51;16.17;73.06
71047;SHT31;58703;48.978;8.982;2023-11-19T13:46:17;16.24;72.86
71047;SHT31;58703;48.978;8.982;2023-11-19T13:48:42;16.17;72.82
71047;SHT31;58703;48.978;8.982;2023-11-19T13:51:08;15.88;73.48
71047;SHT31;58703;48.978;8.982;2023-11-19T13:53:35;16.06;73.41
71047;SHT31;58703;48.978;8.982;2023-11-19T13:56:01;15.92;72.78
71047;SHT31;58703;48.978;8.982;2023-11-19T13:58:27;16.23;72.82
71047;SHT31;58703;48.978;8.982;2023-11-19T14:00:52;16.00;73.20
71047;SHT31;58703;48.978;8.982;2023-11-19T14:03:18;15.86;73.88
71047;SHT31;58703;48.978;8.982;2023-11-19T14:05:44;15.89;73.87
71047;SHT31;58703;48.978;8.982;2023-11-19T14:08:09;15.92;73.77
71047;SHT31;58703;48.978;8.982;2023-11-19T14:10:38;16.14;72.89
71047;SHT31;58703;48.978;8.982;2023-11-19T14:13:07;15.95;72.91
71047;SHT31;58703;48.978;8.982;2023-11-19T14:15:33;16.05;73.40
71047;SHT31;58703;48.978;8.982;2023-11-19T14:17:59;16.39;72.32
71047;SHT31;58703;48.978;8.982;2023-11-19T14:20:25;16.51;71.79
71047;SHT31;58703;48.978;8.982;2023-11-19T14:22:51;16.26;71.19
71047;SHT31;58703;48.978;8.982;2023-11-19T14:25:18;16.57;71.29
71047;SHT31;58703;48.978;8.982;2023-11-19T14:27:45;16.31;70.27
71047;SHT31;58703;48.978;8.982;2023-11-19T14:30:14;16.17;70.26
71047;SHT31;58703;48.978;8.982;2023-11-19T14:32:41;16.48;70.41
71047;SHT31;58703;48.978;8.982;2023-11-19T14:35:11;16.54;70.28
71047;SHT31;58703;48.978;8.982;2023-11-19T14:37:37;16.05;71.05
71047;SHT31;58703;48.978;8.982;2023-11-19T14:40:04;16.26;70.65
71047;SHT31;58703;48.978;8.982;2023-11-19T14:42:31;15.90;72.37
71047;SHT31;58703;48.978;8.982;2023-11-19T14:44:57;16.03;72.45
71047;SHT31;58703;48.978;8.982;2023-11-19T14:47:24;15.81;72.81
71047;SHT31;58703;48.978;8.982;2023-11-19T14:49:50;15.99;72.14
71047;SHT31;58703;48.978;8.982;2023-11-19T14:52:16;16.10;72.43
71047;SHT31;58703;48.978;8.982;2023-11-19T14:54:41;16.33;71.91
71047;SHT31;58703;48.978;8.982;2023-11-19T14:57:07;16.09;72.28
71047;SHT31;58703;48.978;8.982;2023-11-19T14:59:37;16.06;72.61
71047;SHT31;58703;48.978;8.982;2023-11-19T15:02:03;16.06;72.85
71047;SHT31;58703;48.978;8.982;2023-11-19T15:04:29;16.03;73.15
71047;SHT31;58703;48.978;8.982;2023-11-19T15:06:59;16.06;73.83
71047;SHT31;58703;48.978;8.982;2023-11-19T15:09:25;15.73;74.31
71047;SHT31;58703;48.978;8.982;2023-11-19T15:11:53;15.11;76.31
71047;SHT31;58703;48.978;8.982;2023-11-19T15:14:19;14.83;77.27
71047;SHT31;58703;48.978;8.982;2023-11-19T15:16:46;14.56;78.59
71047;SHT31;58703;48.978;8.982;2023-11-19T15:19:12;14.50;78.34
71047;SHT31;58703;48.978;8.982;2023-11-19T15:21:42;14.32;79.19
71047;SHT31;58703;48.978;8.982;2023-11-19T15:24:08;14.15;80.19
71047;SHT31;58703;48.978;8.982;2023-11-19T15:26:34;13.97;80.45
71047;SHT31;58703;48.978;8.982;2023-11-19T15:29:04;13.91;80.20
71047;SHT31;58703;48.978;8.982;2023-11-19T15:31:30;14.13;79.30
71047;SHT31;58703;48.978;8.982;2023-11-19T15:33:56;14.02;79.72
71047;SHT31;58703;48.978;8.982;2023-11-19T15:36:22;14.01;79.40
71047;SHT31;58703;48.978;8.982;2023-11-19T15:38:47;13.88;79.83
71047;SHT31;58703;48.978;8.982;2023-11-19T15:41:13;13.79;80.18
71047;SHT31;58703;48.978;8.982;2023-11-19T15:43:39;13.64;80.03
71047;SHT31;58703;48.978;8.982;2023-11-19T15:46:08;13.55;80.33
71047;SHT31;58703;48.978;8.982;2023-11-19T15:48:35;13.47;80.07
71047;SHT31;58703;48.978;8.982;2023-11-19T15:51:01;13.26;81.02
71047;SHT31;58703;48.978;8.982;2023-11-19T15:53:28;13.41;80.47
71047;SHT31;58703;48.978;8.982;2023-11-19T15:55:54;13.41;79.96
71047;SHT31;58703;48.978;8.982;2023-11-19T15:58:20;13.36;80.34
71047;SHT31;58703;48.978;8.982;2023-11-19T16:00:46;13.54;79.33
71047;SHT31;58703;48.978;8.982;2023-11-19T16:03:13;13.57;79.17